createdAt,value
2018-02-19T00:01:42.804Z,0.50
2018-02-19T00:04:10.387Z,0.40
2018-02-19T00:06:38.753Z,0.40
2018-02-19T00:09:07.110Z,0.30
2018-02-19T00:11:34.729Z,0.30
2018-02-19T00:14:02.314Z,0.30
2018-02-19T00:16:29.891Z,0.20
2018-02-19T00:18:57.487Z,0.20
2018-02-19T00:21:25.060Z,0.20
2018-02-19T00:23:52.675Z,0.10
2018-02-19T00:26:20.261Z,0.10
2018-02-19T00:28:48.659Z,0.10
2018-02-19T00:31:16.244Z,0.00
2018-02-19T00:33:43.810Z,0.00
2018-02-19T00:36:11.423Z,0.00
2018-02-19T00:38:38.999Z,0.00
2018-02-19T00:41:06.626Z,-0.10
2018-02-19T00:43:34.972Z,-0.20
2018-02-19T00:46:02.797Z,-0.20
2018-02-19T00:48:30.395Z,-0.20
2018-02-19T00:50:58.007Z,-0.30
2018-02-19T00:53:25.639Z,-0.30
2018-02-19T00:55:53.217Z,-0.30
2018-02-19T00:58:21.608Z,-0.40
2018-02-19T01:00:49.243Z,-0.40
2018-02-19T01:03:17.656Z,-0.50
2018-02-19T01:05:45.235Z,-0.50
2018-02-19T01:08:12.829Z,-0.50
2018-02-19T01:10:40.452Z,-0.50
2018-02-19T01:13:08.038Z,-0.50
2018-02-19T01:15:35.660Z,-0.60
2018-02-19T01:18:03.246Z,-0.70
2018-02-19T01:20:30.868Z,-0.70
2018-02-19T01:22:58.443Z,-0.70
2018-02-19T01:25:26.074Z,-0.70
2018-02-19T01:27:54.424Z,-0.80
2018-02-19T01:30:22.004Z,-0.80
2018-02-19T01:32:50.392Z,-0.90
2018-02-19T01:35:18.755Z,-0.90
2018-02-19T01:37:47.162Z,-0.90
2018-02-19T01:40:14.758Z,-0.90
2018-02-19T01:42:42.377Z,-0.90
2018-02-19T01:45:09.975Z,-0.90
2018-02-19T01:47:37.613Z,-0.90
2018-02-19T01:50:14.020Z,-1.00
2018-02-19T01:52:41.640Z,-1.00
2018-02-19T01:55:09.243Z,-1.00
2018-02-19T01:57:36.834Z,-1.10
2018-02-19T02:00:04.479Z,-1.10
2018-02-19T02:02:32.844Z,-1.10
2018-02-19T02:05:00.483Z,-1.10
2018-02-19T02:07:28.083Z,-1.20
2018-02-19T02:09:56.468Z,-1.20
2018-02-19T02:12:24.821Z,-1.20
2018-02-19T02:14:52.486Z,-1.30
2018-02-19T02:17:20.072Z,-1.20
2018-02-19T02:19:49.622Z,-1.30
2018-02-19T02:22:17.225Z,-1.30
2018-02-19T02:24:44.839Z,-1.30
2018-02-19T02:27:12.495Z,-1.40
2018-02-19T02:29:40.079Z,-1.40
2018-02-19T02:32:07.712Z,-1.40
2018-02-19T02:34:35.291Z,-1.40
2018-02-19T02:37:03.262Z,-1.40
2018-02-19T02:39:30.890Z,-1.40
2018-02-19T02:41:58.472Z,-1.40
2018-02-19T02:44:27.068Z,-1.40
2018-02-19T02:46:54.671Z,-1.40
2018-02-19T02:49:22.288Z,-1.40
2018-02-19T02:51:49.899Z,-1.40
2018-02-19T02:54:17.514Z,-1.40
2018-02-19T02:56:45.108Z,-1.40
2018-02-19T02:59:12.795Z,-1.50
2018-02-19T03:01:40.390Z,-1.40
2018-02-19T03:04:08.141Z,-1.50
2018-02-19T03:06:35.720Z,-1.50
2018-02-19T03:09:03.309Z,-1.50
2018-02-19T03:11:31.687Z,-1.50
2018-02-19T03:14:00.042Z,-1.50
2018-02-19T03:16:27.644Z,-1.50
2018-02-19T03:18:55.233Z,-1.50
2018-02-19T03:21:22.858Z,-1.50
2018-02-19T03:23:50.451Z,-1.50
2018-02-19T03:26:18.089Z,-1.50
2018-02-19T03:28:45.681Z,-1.50
2018-02-19T03:31:13.266Z,-1.50
2018-02-19T03:33:40.875Z,-1.50
2018-02-19T03:36:08.456Z,-1.50
2018-02-19T03:38:36.061Z,-1.50
2018-02-19T03:41:04.420Z,-1.50
2018-02-19T03:43:32.799Z,-1.50
2018-02-19T03:46:00.438Z,-1.60
2018-02-19T03:48:28.070Z,-1.60
2018-02-19T03:50:55.671Z,-1.50
2018-02-19T03:53:23.335Z,-1.60
2018-02-19T03:55:50.930Z,-1.60
2018-02-19T03:58:18.521Z,-1.60
2018-02-19T04:00:46.139Z,-1.60
2018-02-19T04:03:13.806Z,-1.60
2018-02-19T04:05:41.447Z,-1.60
2018-02-19T04:08:09.808Z,-1.60
2018-02-19T04:10:37.428Z,-1.60
2018-02-19T04:13:05.019Z,-1.60
2018-02-19T04:15:32.646Z,-1.60
2018-02-19T04:18:01.252Z,-1.60
2018-02-19T04:20:28.835Z,-1.70
2018-02-19T04:22:56.454Z,-1.70
2018-02-19T04:25:24.059Z,-1.70
2018-02-19T04:27:51.688Z,-1.70
2018-02-19T04:30:19.280Z,-1.70
2018-02-19T04:32:46.895Z,-1.70
2018-02-19T04:35:14.495Z,-1.70
2018-02-19T04:37:42.115Z,-1.70
2018-02-19T04:40:09.709Z,-1.70
2018-02-19T04:42:37.301Z,-1.70
2018-02-19T04:45:09.296Z,-1.80
2018-02-19T04:47:36.895Z,-1.80
2018-02-19T04:50:04.561Z,-1.80
2018-02-19T04:52:32.162Z,-1.80
2018-02-19T04:54:59.780Z,-1.80
2018-02-19T04:57:27.363Z,-1.80
2018-02-19T04:59:55.744Z,-1.90
2018-02-19T05:02:23.335Z,-1.80
2018-02-19T05:04:50.995Z,-1.90
2018-02-19T05:07:18.580Z,-1.90
2018-02-19T05:09:46.174Z,-1.90
2018-02-19T05:12:14.566Z,-1.90
2018-02-19T05:14:42.165Z,-1.90
2018-02-19T05:17:09.779Z,-1.90
2018-02-19T05:19:38.125Z,-1.90
2018-02-19T05:22:05.998Z,-1.90
2018-02-19T05:24:34.377Z,-1.90
2018-02-19T05:27:02.035Z,-1.90
2018-02-19T05:29:29.623Z,-1.90
2018-02-19T05:31:58.025Z,-2.00
2018-02-19T05:34:25.634Z,-2.00
2018-02-19T05:36:53.223Z,-2.00
2018-02-19T05:39:21.604Z,-2.00
2018-02-19T05:41:49.193Z,-2.00
2018-02-19T05:44:16.810Z,-2.00
2018-02-19T05:46:45.168Z,-2.00
2018-02-19T05:49:12.841Z,-2.00
2018-02-19T05:51:41.205Z,-2.00
2018-02-19T05:54:08.847Z,-2.00
2018-02-19T05:56:37.201Z,-2.00
2018-02-19T05:59:04.901Z,-2.00
2018-02-19T06:01:32.507Z,-2.00
2018-02-19T06:04:00.104Z,-2.00
2018-02-19T06:06:27.726Z,-2.10
2018-02-19T06:08:56.240Z,-2.10
2018-02-19T06:11:23.875Z,-2.10
2018-02-19T06:13:51.466Z,-2.10
2018-02-19T06:16:19.080Z,-2.10
2018-02-19T06:18:46.683Z,-2.10
2018-02-19T06:21:14.326Z,-2.10
2018-02-19T06:23:41.919Z,-2.10
2018-02-19T06:26:09.534Z,-2.10
2018-02-19T06:28:37.125Z,-2.10
2018-02-19T06:31:04.757Z,-2.10
2018-02-19T06:33:32.357Z,-2.10
2018-02-19T06:35:59.955Z,-2.10
2018-02-19T06:38:27.583Z,-2.10
2018-02-19T06:40:55.180Z,-2.10
2018-02-19T06:43:22.818Z,-2.10
2018-02-19T06:45:51.191Z,-2.00
2018-02-19T06:48:18.807Z,-2.00
2018-02-19T06:50:46.414Z,-1.90
2018-02-19T06:53:14.017Z,-1.90
2018-02-19T06:55:41.638Z,-1.90
2018-02-19T06:58:09.231Z,-1.80
2018-02-19T07:00:36.842Z,-1.80
2018-02-19T07:03:04.438Z,-1.70
2018-02-19T07:05:32.070Z,-1.70
2018-02-19T07:07:59.669Z,-1.70
2018-02-19T07:10:27.296Z,-1.70
2018-02-19T07:12:55.692Z,-1.60
2018-02-19T07:15:24.042Z,-1.60
2018-02-19T07:17:51.687Z,-1.60
2018-02-19T07:20:19.279Z,-1.50
2018-02-19T07:22:47.681Z,-1.50
2018-02-19T07:25:15.295Z,-1.50
2018-02-19T07:27:42.944Z,-1.40
2018-02-19T07:30:10.533Z,-1.40
2018-02-19T07:32:38.120Z,-1.30
2018-02-19T07:35:05.756Z,-1.30
2018-02-19T07:37:34.117Z,-1.20
2018-02-19T07:40:01.839Z,-1.20
2018-02-19T07:42:29.482Z,-1.10
2018-02-19T07:44:57.115Z,-1.00
2018-02-19T07:47:24.711Z,-0.90
2018-02-19T07:49:52.311Z,-0.80
2018-02-19T07:52:19.932Z,-0.70
2018-02-19T07:54:47.518Z,-0.50
2018-02-19T07:57:15.127Z,-0.50
2018-02-19T07:59:43.489Z,-0.40
2018-02-19T08:02:11.112Z,-0.40
2018-02-19T08:04:38.713Z,-0.30
2018-02-19T08:07:07.329Z,-0.20
2018-02-19T08:09:34.933Z,-0.20
2018-02-19T08:12:02.575Z,-0.10
2018-02-19T08:14:30.154Z,-0.10
2018-02-19T08:16:57.737Z,0.00
2018-02-19T08:19:25.358Z,0.00
2018-02-19T08:21:52.947Z,0.00
2018-02-19T08:24:20.556Z,0.00
2018-02-19T08:26:48.136Z,0.10
2018-02-19T08:29:15.755Z,0.20
2018-02-19T08:31:44.097Z,0.40
2018-02-19T08:34:11.717Z,0.40
2018-02-19T08:36:39.338Z,0.30
2018-02-19T08:39:07.695Z,0.50
2018-02-19T08:41:35.315Z,0.50
2018-02-19T08:44:02.926Z,0.60
2018-02-19T08:46:30.553Z,0.70
2018-02-19T08:48:58.135Z,0.70
2018-02-19T08:51:26.563Z,0.80
2018-02-19T08:53:54.145Z,0.80
2018-02-19T08:56:21.728Z,0.80
2018-02-19T08:58:49.343Z,0.80
2018-02-19T09:01:16.925Z,0.90
2018-02-19T09:03:44.545Z,0.90
2018-02-19T09:06:12.898Z,1.00
2018-02-19T09:08:40.531Z,1.00
2018-02-19T09:11:08.125Z,1.00
2018-02-19T09:13:36.488Z,1.10
2018-02-19T09:16:04.363Z,1.10
2018-02-19T09:18:31.944Z,1.20
2018-02-19T09:21:00.328Z,1.40
2018-02-19T09:23:27.928Z,1.40
2018-02-19T09:25:55.538Z,1.40
2018-02-19T09:28:23.947Z,1.70
2018-02-19T09:30:52.303Z,1.90
2018-02-19T09:33:20.656Z,2.00
2018-02-19T09:35:48.297Z,2.00
2018-02-19T09:38:15.895Z,2.10
2018-02-19T09:40:44.295Z,2.40
2018-02-19T09:43:12.666Z,2.40
2018-02-19T09:45:40.268Z,2.40
2018-02-19T09:48:07.890Z,2.40
2018-02-19T09:50:35.472Z,2.50
2018-02-19T09:53:03.330Z,2.50
2018-02-19T09:55:31.649Z,2.60
2018-02-19T09:57:59.265Z,2.60
2018-02-19T10:00:26.839Z,2.50
2018-02-19T10:02:54.420Z,2.70
2018-02-19T10:05:22.030Z,3.00
2018-02-19T10:07:49.611Z,3.10
2018-02-19T10:10:17.365Z,3.40
2018-02-19T10:12:44.939Z,3.70
2018-02-19T10:15:12.551Z,3.80
2018-02-19T10:17:40.886Z,3.70
2018-02-19T10:20:08.608Z,3.70
2018-02-19T10:22:36.179Z,3.70
2018-02-19T10:25:03.874Z,3.50
2018-02-19T10:27:31.484Z,3.60
2018-02-19T10:29:59.061Z,3.70
2018-02-19T10:32:26.693Z,3.60
2018-02-19T10:34:55.028Z,4.00
2018-02-19T10:37:22.676Z,4.00
2018-02-19T10:39:50.245Z,4.10
2018-02-19T10:42:17.850Z,4.20
2018-02-19T10:44:46.269Z,3.90
2018-02-19T10:47:14.574Z,3.70
2018-02-19T10:49:42.194Z,3.60
2018-02-19T10:52:09.771Z,3.70
2018-02-19T10:54:37.408Z,3.80
2018-02-19T10:57:04.992Z,3.70
2018-02-19T10:59:33.386Z,4.30
2018-02-19T11:02:00.976Z,4.30
2018-02-19T11:04:29.343Z,4.60
2018-02-19T11:06:56.919Z,4.60
2018-02-19T11:09:25.316Z,5.00
2018-02-19T11:11:52.891Z,5.00
2018-02-19T11:14:20.466Z,5.20
2018-02-19T11:16:48.884Z,5.10
2018-02-19T11:19:17.230Z,4.90
2018-02-19T11:21:44.845Z,4.90
2018-02-19T11:24:12.524Z,5.20
2018-02-19T11:26:40.120Z,5.30
2018-02-19T11:29:07.701Z,5.20
2018-02-19T11:31:36.073Z,5.50
2018-02-19T11:34:03.668Z,5.50
2018-02-19T11:36:31.281Z,5.50
2018-02-19T11:38:58.859Z,5.60
2018-02-19T11:41:27.226Z,5.60
2018-02-19T11:43:54.836Z,5.60
2018-02-19T11:46:22.414Z,5.60
2018-02-19T11:48:50.029Z,5.70
2018-02-19T11:51:17.611Z,5.90
2018-02-19T11:53:45.212Z,6.00
2018-02-19T11:56:12.787Z,5.90
2018-02-19T11:58:40.407Z,6.00
2018-02-19T12:01:07.987Z,6.00
2018-02-19T12:03:35.559Z,6.40
2018-02-19T12:06:03.175Z,6.30
2018-02-19T12:08:30.772Z,6.40
2018-02-19T12:10:58.377Z,6.50
2018-02-19T12:13:25.952Z,6.50
2018-02-19T12:15:53.558Z,6.60
2018-02-19T12:18:21.144Z,6.10
2018-02-19T12:20:49.527Z,5.80
2018-02-19T12:23:17.106Z,5.80
2018-02-19T12:25:44.694Z,6.00
2018-02-19T12:28:12.300Z,6.20
2018-02-19T12:30:40.644Z,6.30
2018-02-19T12:33:08.282Z,6.30
2018-02-19T12:35:35.869Z,6.30
2018-02-19T12:38:03.476Z,6.50
2018-02-19T12:40:31.065Z,6.60
2018-02-19T12:42:58.676Z,6.70
2018-02-19T12:45:27.021Z,6.90
2018-02-19T12:47:54.667Z,6.80
2018-02-19T12:50:22.288Z,6.80
2018-02-19T12:52:49.880Z,6.80
2018-02-19T12:55:17.494Z,6.80
2018-02-19T12:57:45.099Z,6.80
2018-02-19T13:00:12.743Z,6.60
2018-02-19T13:02:40.344Z,6.50
2018-02-19T13:05:07.928Z,6.50
2018-02-19T13:07:36.332Z,6.50
2018-02-19T13:10:04.039Z,6.40
2018-02-19T13:12:31.649Z,6.50
2018-02-19T13:14:59.224Z,6.50
2018-02-19T13:17:26.840Z,6.60
2018-02-19T13:19:55.222Z,6.70
2018-02-19T13:22:23.627Z,6.80
2018-02-19T13:24:51.203Z,6.80
2018-02-19T13:27:18.844Z,6.80
2018-02-19T13:29:46.425Z,6.70
2018-02-19T13:32:14.009Z,6.60
2018-02-19T13:34:41.612Z,6.50
2018-02-19T13:37:09.965Z,6.50
2018-02-19T13:39:37.572Z,6.40
2018-02-19T13:42:05.158Z,6.40
2018-02-19T13:44:32.785Z,6.40
2018-02-19T13:47:00.362Z,6.50
2018-02-19T13:49:27.944Z,6.60
2018-02-19T13:51:55.544Z,6.70
2018-02-19T13:54:23.884Z,6.90
2018-02-19T13:56:51.490Z,6.90
2018-02-19T13:59:19.068Z,7.10
2018-02-19T14:01:46.668Z,7.10
2018-02-19T14:04:15.756Z,6.90
2018-02-19T14:06:43.382Z,6.90
2018-02-19T14:09:10.962Z,6.90
2018-02-19T14:11:38.535Z,6.70
2018-02-19T14:14:06.140Z,6.70
2018-02-19T14:16:33.717Z,6.70
2018-02-19T14:19:01.332Z,6.70
2018-02-19T14:21:28.904Z,6.70
2018-02-19T14:23:57.308Z,6.60
2018-02-19T14:26:24.895Z,6.60
2018-02-19T14:28:52.464Z,6.60
2018-02-19T14:31:20.064Z,6.40
2018-02-19T14:33:48.405Z,6.40
2018-02-19T14:36:16.021Z,6.40
2018-02-19T14:38:43.614Z,6.20
2018-02-19T14:41:11.237Z,6.20
2018-02-19T14:43:38.827Z,6.10
2018-02-19T14:46:06.694Z,6.00
2018-02-19T14:48:34.294Z,6.00
2018-02-19T14:51:02.193Z,5.90
2018-02-19T14:53:30.633Z,5.70
2018-02-19T14:55:58.226Z,5.70
2018-02-19T14:58:25.837Z,5.70
2018-02-19T15:00:54.243Z,5.50
2018-02-19T15:03:22.619Z,5.40
2018-02-19T15:05:50.194Z,5.40
2018-02-19T15:08:17.812Z,5.10
2018-02-19T15:10:45.388Z,5.20
2018-02-19T15:13:12.956Z,5.20
2018-02-19T15:15:40.547Z,5.20
2018-02-19T15:18:08.130Z,5.00
2018-02-19T15:20:35.729Z,5.00
2018-02-19T15:23:03.303Z,4.90
2018-02-19T15:25:31.678Z,4.90
2018-02-19T15:28:00.008Z,5.00
2018-02-19T15:30:27.580Z,4.90
2018-02-19T15:32:55.183Z,4.80
2018-02-19T15:35:23.523Z,4.80
2018-02-19T15:37:51.128Z,4.70
2018-02-19T15:40:18.735Z,4.70
2018-02-19T15:42:46.337Z,4.70
2018-02-19T15:45:14.671Z,4.60
2018-02-19T15:47:42.315Z,4.60
2018-02-19T15:50:09.882Z,4.60
2018-02-19T15:52:37.459Z,4.60
2018-02-19T15:55:05.059Z,4.60
2018-02-19T15:57:33.396Z,4.40
2018-02-19T16:00:01.011Z,4.40
2018-02-19T16:02:28.606Z,4.40
2018-02-19T16:04:56.208Z,4.40
2018-02-19T16:07:24.541Z,4.30
2018-02-19T16:09:52.103Z,4.20
2018-02-19T16:12:19.700Z,4.20
2018-02-19T16:14:48.087Z,4.00
2018-02-19T16:17:16.449Z,3.90
2018-02-19T16:19:44.021Z,3.90
2018-02-19T16:22:12.384Z,3.90
2018-02-19T16:24:39.952Z,3.80
2018-02-19T16:27:08.324Z,3.80
2018-02-19T16:29:35.887Z,3.70
2018-02-19T16:32:04.214Z,3.60
2018-02-19T16:34:31.891Z,3.60
2018-02-19T16:37:00.263Z,3.50
2018-02-19T16:39:27.864Z,3.50
2018-02-19T16:41:56.202Z,3.40
2018-02-19T16:44:23.826Z,3.40
2018-02-19T16:46:51.406Z,3.40
2018-02-19T16:49:18.980Z,3.30
2018-02-19T16:51:46.605Z,3.30
2018-02-19T16:54:14.178Z,3.30
2018-02-19T16:56:41.782Z,3.20
2018-02-19T16:59:09.360Z,3.10
2018-02-19T17:01:37.736Z,3.00
2018-02-19T17:04:06.099Z,2.90
2018-02-19T17:06:33.724Z,2.90
2018-02-19T17:09:01.298Z,2.80
2018-02-19T17:11:28.873Z,2.80
2018-02-19T17:13:56.484Z,2.70
2018-02-19T17:16:24.057Z,2.70
2018-02-19T17:18:51.662Z,2.70
2018-02-19T17:21:19.292Z,2.70
2018-02-19T17:23:47.116Z,2.60
2018-02-19T17:26:14.724Z,2.60
2018-02-19T17:28:42.577Z,2.50
2018-02-19T17:31:10.179Z,2.50
2018-02-19T17:33:38.519Z,2.40
2018-02-19T17:36:06.939Z,2.40
2018-02-19T17:38:35.305Z,2.40
2018-02-19T17:41:02.905Z,2.30
2018-02-19T17:43:30.485Z,2.30
2018-02-19T17:45:58.110Z,2.30
2018-02-19T17:48:26.447Z,2.10
2018-02-19T17:50:54.024Z,2.10
2018-02-19T17:53:22.405Z,2.00
2018-02-19T17:55:50.761Z,2.00
2018-02-19T17:58:18.395Z,1.90
2018-02-19T18:00:45.993Z,1.90
2018-02-19T18:03:13.594Z,1.80
2018-02-19T18:05:41.180Z,1.80
2018-02-19T18:08:08.790Z,1.70
2018-02-19T18:10:37.159Z,1.60
2018-02-19T18:13:05.824Z,1.60
2018-02-19T18:15:33.420Z,1.60
2018-02-19T18:18:01.979Z,1.50
2018-02-19T18:20:29.606Z,1.50
2018-02-19T18:22:57.958Z,1.50
2018-02-19T18:25:25.566Z,1.50
2018-02-19T18:27:53.142Z,1.50
2018-02-19T18:30:20.772Z,1.40
2018-02-19T18:32:48.356Z,1.40
2018-02-19T18:35:16.016Z,1.40
2018-02-19T18:37:44.394Z,1.20
2018-02-19T18:40:11.980Z,1.20
2018-02-19T18:42:40.394Z,1.10
2018-02-19T18:45:07.976Z,1.10
2018-02-19T18:47:35.599Z,1.00
2018-02-19T18:50:03.187Z,0.90
2018-02-19T18:52:30.803Z,0.90
2018-02-19T18:54:58.387Z,0.80
2018-02-19T18:57:25.998Z,0.80
2018-02-19T18:59:54.365Z,0.80
2018-02-19T19:02:22.008Z,0.80
2018-02-19T19:04:49.601Z,0.80
2018-02-19T19:07:29.814Z,0.70
2018-02-19T19:10:09.213Z,0.70
2018-02-19T19:12:36.824Z,0.60
2018-02-19T19:15:04.671Z,0.60
2018-02-19T19:17:32.243Z,0.60
2018-02-19T19:19:59.855Z,0.50
2018-02-19T19:22:27.443Z,0.50
2018-02-19T19:24:55.060Z,0.50
2018-02-19T19:27:23.403Z,0.40
2018-02-19T19:29:51.293Z,0.40
2018-02-19T19:32:18.883Z,0.40
2018-02-19T19:34:46.469Z,0.30
2018-02-19T19:37:14.068Z,0.30
2018-02-19T19:39:41.645Z,0.20
2018-02-19T19:42:10.801Z,0.20
2018-02-19T19:44:38.384Z,0.20
2018-02-19T19:47:06.018Z,0.20
2018-02-19T19:49:33.603Z,0.20
2018-02-19T19:52:01.203Z,0.20
2018-02-19T19:54:28.818Z,0.10
2018-02-19T19:56:56.397Z,0.10
2018-02-19T19:59:24.796Z,0.00
2018-02-19T20:01:52.381Z,0.00
2018-02-19T20:04:19.991Z,0.00
2018-02-19T20:06:48.357Z,-0.10
2018-02-19T20:09:15.982Z,-0.10
2018-02-19T20:11:43.569Z,-0.10
2018-02-19T20:14:11.166Z,-0.10
2018-02-19T20:16:39.541Z,0.00
2018-02-19T20:19:07.901Z,0.00
2018-02-19T20:21:36.277Z,0.00
2018-02-19T20:24:04.629Z,0.10
2018-02-19T20:26:32.253Z,0.00
2018-02-19T20:28:59.836Z,0.00
2018-02-19T20:31:27.421Z,0.10
2018-02-19T20:33:55.029Z,0.10
2018-02-19T20:36:22.613Z,-0.10
2018-02-19T20:38:50.220Z,-0.10
2018-02-19T20:41:18.572Z,-0.20
2018-02-19T20:43:46.209Z,-0.30
2018-02-19T20:46:13.797Z,-0.30
2018-02-19T20:48:41.371Z,-0.30
2018-02-19T20:51:09.002Z,-0.30
2018-02-19T20:53:36.584Z,-0.30
2018-02-19T20:56:04.993Z,-0.40
2018-02-19T20:58:32.589Z,-0.40
2018-02-19T21:01:00.176Z,-0.40
2018-02-19T21:03:27.795Z,-0.40
2018-02-19T21:05:55.404Z,-0.50
2018-02-19T21:08:23.025Z,-0.50
2018-02-19T21:10:50.616Z,-0.50
2018-02-19T21:13:18.255Z,-0.50
2018-02-19T21:15:45.832Z,-0.60
2018-02-19T21:18:13.413Z,-0.60
2018-02-19T21:20:41.794Z,-0.60
2018-02-19T21:23:10.150Z,-0.60
2018-02-19T21:25:37.782Z,-0.60
2018-02-19T21:28:05.368Z,-0.60
2018-02-19T21:30:32.965Z,-0.60
2018-02-19T21:33:00.582Z,-0.60
2018-02-19T21:35:28.190Z,-0.50
2018-02-19T21:37:55.806Z,-0.50
2018-02-19T21:40:23.394Z,-0.50
2018-02-19T21:42:51.738Z,-0.40
2018-02-19T21:45:19.373Z,-0.40
2018-02-19T21:47:46.960Z,-0.40
2018-02-19T21:50:15.347Z,-0.30
2018-02-19T21:52:42.966Z,-0.40
2018-02-19T21:55:10.545Z,-0.30
2018-02-19T21:57:38.175Z,-0.30
2018-02-19T22:00:05.777Z,-0.30
2018-02-19T22:02:33.357Z,-0.30
2018-02-19T22:05:01.750Z,-0.30
2018-02-19T22:07:30.094Z,-0.30
2018-02-19T22:09:57.713Z,-0.30
2018-02-19T22:12:25.304Z,-0.30
2018-02-19T22:14:52.890Z,-0.30
2018-02-19T22:17:20.507Z,-0.30
2018-02-19T22:19:48.093Z,-0.30
2018-02-19T22:22:15.699Z,-0.30
2018-02-19T22:24:43.284Z,-0.30
2018-02-19T22:27:11.018Z,-0.30
2018-02-19T22:29:38.612Z,-0.30
2018-02-19T22:32:06.221Z,-0.30
2018-02-19T22:34:34.605Z,-0.30
2018-02-19T22:37:02.961Z,-0.30
2018-02-19T22:39:30.581Z,-0.30
2018-02-19T22:41:58.165Z,-0.40
2018-02-19T22:44:25.769Z,-0.40
2018-02-19T22:46:54.335Z,-0.40
2018-02-19T22:49:22.685Z,-0.40
2018-02-19T22:51:50.316Z,-0.40
2018-02-19T22:54:17.900Z,-0.40
2018-02-19T22:56:45.487Z,-0.40
2018-02-19T22:59:13.865Z,-0.40
2018-02-19T23:01:42.226Z,-0.40
2018-02-19T23:04:09.898Z,-0.40
2018-02-19T23:06:37.488Z,-0.40
2018-02-19T23:09:05.138Z,-0.40
2018-02-19T23:11:33.498Z,-0.40
2018-02-19T23:14:01.095Z,-0.50
2018-02-19T23:16:28.720Z,-0.50
2018-02-19T23:18:57.083Z,-0.50
2018-02-19T23:21:24.725Z,-0.50
2018-02-19T23:23:52.305Z,-0.50
2018-02-19T23:26:19.911Z,-0.50
2018-02-19T23:28:47.539Z,-0.50
2018-02-19T23:31:15.908Z,-0.60
2018-02-19T23:33:43.539Z,-0.60
2018-02-19T23:36:11.138Z,-0.60
2018-02-19T23:38:39.551Z,-0.70
2018-02-19T23:41:07.155Z,-0.70
2018-02-19T23:43:34.763Z,-0.70
2018-02-19T23:46:02.396Z,-0.70
2018-02-19T23:48:30.026Z,-0.80
2018-02-19T23:50:57.674Z,-0.80
2018-02-19T23:53:25.275Z,-0.80
2018-02-19T23:55:53.655Z,-0.90
2018-02-19T23:58:22.051Z,-0.90
